Time;durP1;ratioP1;P1;durP2;ratioP2;P2;SDS_P1;SDS_P2;PMS_P1;PMS_P2;Temp;Humidity;BMP_temperature;BMP_pressure;BME280_temperature;BME280_humidity;BME280_pressure;Samples;Min_cycle;Max_cycle;Signal;HPM_P1;HPM_P2
2023/01/23 00:00:30;;;;;;;0.90;0.82;;;;;;;;;;5058450;28;20093;-68
2023/01/23 00:02:56;;;;;;;0.80;0.80;;;;;;;;;;5058730;28;20020;-68
2023/01/23 00:05:22;;;;;;;0.15;0.15;;;;;;;;;;5059665;28;20017;-68
2023/01/23 00:07:47;;;;;;;0.22;0.22;;;;;;;;;;5039790;28;20025;-67
2023/01/23 00:10:13;;;;;;;0.60;0.60;;;;;;;;;;5053664;28;20060;-69
2023/01/23 00:12:43;;;;;;;0.32;0.32;;;;;;;;;;5049476;28;20079;-67
2023/01/23 00:15:09;;;;;;;0.52;0.52;;;;;;;;;;5058087;28;20064;-68
2023/01/23 00:17:34;;;;;;;0.20;0.20;;;;;;;;;;5062835;28;20050;-68
2023/01/23 00:20:00;;;;;;;0.40;0.40;;;;;;;;;;5062875;28;20498;-67
2023/01/23 00:22:26;;;;;;;1.20;1.08;;;;;;;;;;5065313;28;20071;-67
2023/01/23 00:24:51;;;;;;;0.10;0.10;;;;;;;;;;5062411;28;20059;-68
2023/01/23 00:27:17;;;;;;;0.60;0.60;;;;;;;;;;5035296;28;20032;-68
2023/01/23 00:29:43;;;;;;;1.42;1.38;;;;;;;;;;5054407;28;20891;-68
2023/01/23 00:32:08;;;;;;;0.38;0.38;;;;;;;;;;5062671;28;20091;-68
2023/01/23 00:34:33;;;;;;;0.43;0.43;;;;;;;;;;5073070;28;20059;-68
2023/01/23 00:36:59;;;;;;;0.10;0.10;;;;;;;;;;5049036;28;20082;-67
2023/01/23 00:39:24;;;;;;;0.75;0.75;;;;;;;;;;5024137;28;20391;-67
2023/01/23 00:41:50;;;;;;;0.10;0.10;;;;;;;;;;5053016;28;20087;-67
2023/01/23 00:44:15;;;;;;;0.70;0.70;;;;;;;;;;5035410;28;20057;-67
2023/01/23 00:46:41;;;;;;;0.00;0.00;;;;;;;;;;5055704;28;20496;-67
2023/01/23 00:49:07;;;;;;;0.10;0.10;;;;;;;;;;5057575;28;20035;-68
2023/01/23 00:51:33;;;;;;;0.10;0.10;;;;;;;;;;5055082;28;20028;-68
2023/01/23 00:53:59;;;;;;;1.23;1.13;;;;;;;;;;5055221;28;20073;-68
2023/01/23 00:56:24;;;;;;;0.00;0.00;;;;;;;;;;5073025;28;20349;-67
2023/01/23 00:58:51;;;;;;;0.57;0.57;;;;;;;;;;5072955;28;20029;-68
2023/01/23 01:01:17;;;;;;;0.00;0.00;;;;;;;;;;5054812;28;20059;-69
2023/01/23 01:03:43;;;;;;;0.10;0.10;;;;;;;;;;5054739;28;20082;-68
2023/01/23 01:06:09;;;;;;;0.20;0.20;;;;;;;;;;5072856;28;20032;-67
2023/01/23 01:08:35;;;;;;;0.00;0.00;;;;;;;;;;5054802;28;20029;-67
2023/01/23 01:11:00;;;;;;;0.15;0.15;;;;;;;;;;5055168;28;20360;-68
2023/01/23 01:13:26;;;;;;;0.20;0.20;;;;;;;;;;5055004;28;20033;-68
2023/01/23 01:15:52;;;;;;;0.10;0.10;;;;;;;;;;5072698;28;20019;-68
2023/01/23 01:18:18;;;;;;;0.77;0.60;;;;;;;;;;5072528;28;20036;-69
2023/01/23 01:20:44;;;;;;;0.10;0.10;;;;;;;;;;5057162;28;20083;-68
2023/01/23 01:23:09;;;;;;;0.40;0.40;;;;;;;;;;5073927;28;20052;-69
2023/01/23 01:25:35;;;;;;;0.00;0.00;;;;;;;;;;5065959;28;20025;-68
2023/01/23 01:28:00;;;;;;;1.08;0.98;;;;;;;;;;5038629;28;20033;-68
2023/01/23 01:30:26;;;;;;;0.57;0.57;;;;;;;;;;5056338;28;20107;-68
2023/01/23 01:32:52;;;;;;;0.65;0.52;;;;;;;;;;5056093;28;20484;-70
2023/01/23 01:35:20;;;;;;;0.20;0.20;;;;;;;;;;5054956;28;20117;-68
2023/01/23 01:37:46;;;;;;;0.00;0.00;;;;;;;;;;5038256;28;20120;-69
2023/01/23 01:40:14;;;;;;;0.00;0.00;;;;;;;;;;5056339;28;20033;-69
2023/01/23 01:42:41;;;;;;;3.63;2.90;;;;;;;;;;5056014;28;20033;-68
2023/01/23 01:45:27;;;;;;;0.28;0.28;;;;;;;;;;5055960;28;20033;-69
2023/01/23 01:47:52;;;;;;;0.20;0.20;;;;;;;;;;5054667;28;20036;-68
2023/01/23 01:50:18;;;;;;;0.00;0.00;;;;;;;;;;5038436;28;20032;-68
2023/01/23 01:52:43;;;;;;;0.10;0.10;;;;;;;;;;5056104;28;20021;-68
2023/01/23 01:55:09;;;;;;;0.00;0.00;;;;;;;;;;5055916;28;20469;-68
2023/01/23 01:57:38;;;;;;;0.30;0.30;;;;;;;;;;5055835;28;20481;-68
2023/01/23 02:00:07;;;;;;;0.90;0.90;;;;;;;;;;5037842;28;20036;-68
2023/01/23 02:02:45;;;;;;;0.10;0.10;;;;;;;;;;5055631;28;20040;-68
2023/01/23 02:05:15;;;;;;;0.35;0.35;;;;;;;;;;5037961;28;20032;-68
2023/01/23 02:07:43;;;;;;;0.75;0.63;;;;;;;;;;5037942;28;20494;-68
2023/01/23 02:10:09;;;;;;;0.35;0.35;;;;;;;;;;5055553;28;20346;-68
2023/01/23 02:12:38;;;;;;;;;;;;;;;;;;5037953;28;20053;-68
2023/01/23 02:15:05;;;;;;;0.95;0.52;;;;;;;;;;5055373;28;20388;-68
2023/01/23 02:17:31;;;;;;;6.40;1.17;;;;;;;;;;5055618;28;20052;-68
2023/01/23 02:20:18;;;;;;;0.10;0.10;;;;;;;;;;5055494;28;20468;-68
2023/01/23 02:23:04;;;;;;;1.17;0.95;;;;;;;;;;5037514;28;20041;-68
2023/01/23 02:25:41;;;;;;;0.10;0.10;;;;;;;;;;5040437;28;20500;-68
2023/01/23 02:28:08;;;;;;;0.75;0.57;;;;;;;;;;5037386;28;20477;-68
2023/01/23 02:30:38;;;;;;;2.63;1.65;;;;;;;;;;5037077;28;20024;-71
2023/01/23 02:33:08;;;;;;;1.73;1.38;;;;;;;;;;5037209;28;20029;-68
2023/01/23 02:35:34;;;;;;;;;;;;;;;;;;5055523;28;20033;-68
2023/01/23 02:38:05;;;;;;;0.00;0.00;;;;;;;;;;5037449;28;19915;-68
2023/01/23 02:40:31;;;;;;;0.10;0.10;;;;;;;;;;5055166;28;20115;-68
2023/01/23 02:42:58;;;;;;;0.00;0.00;;;;;;;;;;5037100;28;20033;-68
2023/01/23 02:45:24;;;;;;;0.00;0.00;;;;;;;;;;5037145;28;20033;-68
2023/01/23 02:47:50;;;;;;;0.00;0.00;;;;;;;;;;5036935;28;20376;-68
2023/01/23 02:50:16;;;;;;;0.10;0.10;;;;;;;;;;5036872;28;20032;-68
2023/01/23 02:52:41;;;;;;;0.10;0.10;;;;;;;;;;5054572;28;20052;-68
2023/01/23 02:55:07;;;;;;;0.00;0.00;;;;;;;;;;5037010;28;20116;-68
2023/01/23 02:57:33;;;;;;;0.50;0.50;;;;;;;;;;5054919;28;20476;-69
2023/01/23 03:00:15;;;;;;;0.10;0.10;;;;;;;;;;5053401;28;20029;-68
2023/01/23 03:02:40;;;;;;;0.00;0.00;;;;;;;;;;5039097;28;20088;-68
2023/01/23 03:05:08;;;;;;;0.52;0.52;;;;;;;;;;5036462;28;20044;-68
2023/01/23 03:07:34;;;;;;;0.00;0.00;;;;;;;;;;5036777;28;20476;-68
2023/01/23 03:10:02;;;;;;;0.10;0.10;;;;;;;;;;5036661;28;20362;-68
2023/01/23 03:12:27;;;;;;;0.03;0.03;;;;;;;;;;5036664;28;20116;-68
2023/01/23 03:14:54;;;;;;;0.32;0.32;;;;;;;;;;5054363;28;20508;-68
2023/01/23 03:17:20;;;;;;;0.00;0.00;;;;;;;;;;5036344;28;20384;-68
2023/01/23 03:19:46;;;;;;;0.20;0.20;;;;;;;;;;5036021;28;20045;-68
2023/01/23 03:22:13;;;;;;;0.00;0.00;;;;;;;;;;5053025;28;20043;-68
2023/01/23 03:24:39;;;;;;;0.10;0.10;;;;;;;;;;5054171;28;20103;-68
2023/01/23 03:27:04;;;;;;;0.10;0.10;;;;;;;;;;5036439;28;20212;-68
2023/01/23 03:32:21;;;;;;;0.00;0.00;;;;;;;;;;5053857;28;20061;-68
2023/01/23 03:34:46;;;;;;;0.00;0.00;;;;;;;;;;5054006;28;20466;-68
2023/01/23 03:37:14;;;;;;;0.00;0.00;;;;;;;;;;5036098;28;20025;-69
2023/01/23 03:42:27;;;;;;;0.10;0.10;;;;;;;;;;5051713;28;20033;-69
2023/01/23 03:44:55;;;;;;;0.10;0.10;;;;;;;;;;5067813;28;20116;-69
2023/01/23 03:47:25;;;;;;;2.58;2.40;;;;;;;;;;5055874;28;20055;-69
2023/01/23 03:49:50;;;;;;;0.10;0.10;;;;;;;;;;5039164;28;20058;-69
2023/01/23 03:52:17;;;;;;;3.30;1.50;;;;;;;;;;5055729;28;20124;-69
2023/01/23 03:54:43;;;;;;;0.10;0.10;;;;;;;;;;5039500;28;20126;-68
2023/01/23 03:57:08;;;;;;;0.20;0.20;;;;;;;;;;5055531;28;20028;-69
2023/01/23 03:59:57;;;;;;;0.43;0.43;;;;;;;;;;5047802;28;20068;-68
2023/01/23 04:02:28;;;;;;;0.10;0.10;;;;;;;;;;5037104;28;20492;-69
2023/01/23 04:04:53;;;;;;;0.10;0.10;;;;;;;;;;5051432;28;20032;-69
2023/01/23 04:07:19;;;;;;;0.00;0.00;;;;;;;;;;5069977;28;20025;-68
2023/01/23 04:09:44;;;;;;;0.10;0.10;;;;;;;;;;5051154;28;20032;-68
2023/01/23 04:12:10;;;;;;;0.10;0.10;;;;;;;;;;5068238;28;20033;-68
2023/01/23 04:14:39;;;;;;;0.10;0.10;;;;;;;;;;5051646;28;20023;-68
2023/01/23 04:17:06;;;;;;;1.10;0.63;;;;;;;;;;5051399;28;20025;-68
2023/01/23 04:19:32;;;;;;;2.20;0.63;;;;;;;;;;5050935;28;20472;-68
2023/01/23 04:21:57;;;;;;;0.00;0.00;;;;;;;;;;5051067;28;20365;-68
2023/01/23 04:24:23;;;;;;;0.47;0.30;;;;;;;;;;5069212;28;20090;-68
2023/01/23 04:26:48;;;;;;;1.55;1.45;;;;;;;;;;5051651;28;20028;-69
2023/01/23 04:29:14;;;;;;;0.20;0.10;;;;;;;;;;5051442;28;20046;-68
2023/01/23 04:31:40;;;;;;;0.00;0.00;;;;;;;;;;5069497;28;20052;-69
2023/01/23 04:34:06;;;;;;;0.13;0.13;;;;;;;;;;5069084;28;20060;-69
2023/01/23 04:36:34;;;;;;;0.00;0.00;;;;;;;;;;5051580;28;20864;-68
2023/01/23 04:38:59;;;;;;;1.80;1.65;;;;;;;;;;5051408;28;20151;-69
2023/01/23 04:41:27;;;;;;;0.00;0.00;;;;;;;;;;5051072;28;20552;-68
2023/01/23 04:44:18;;;;;;;0.30;0.30;;;;;;;;;;5035636;28;20395;-68
2023/01/23 04:46:52;;;;;;;0.00;0.00;;;;;;;;;;5050805;28;20464;-68
2023/01/23 04:49:19;;;;;;;0.10;0.10;;;;;;;;;;5050972;28;20041;-69
2023/01/23 04:51:46;;;;;;;0.00;0.00;;;;;;;;;;5068661;28;20031;-68
2023/01/23 04:54:12;;;;;;;0.10;0.10;;;;;;;;;;5053340;28;20123;-69
2023/01/23 04:56:38;;;;;;;0.00;0.00;;;;;;;;;;5055269;28;20606;-68
2023/01/23 04:59:05;;;;;;;0.10;0.10;;;;;;;;;;5055046;28;20033;-68
2023/01/23 05:01:31;;;;;;;0.00;0.00;;;;;;;;;;5055038;28;20467;-68
2023/01/23 05:04:00;;;;;;;0.10;0.10;;;;;;;;;;5055031;28;20178;-68
2023/01/23 05:06:25;;;;;;;0.10;0.10;;;;;;;;;;5054796;28;20934;-68
2023/01/23 05:08:53;;;;;;;0.10;0.10;;;;;;;;;;5054905;28;20028;-69
2023/01/23 05:11:27;;;;;;;0.10;0.10;;;;;;;;;;5054736;28;20067;-68
2023/01/23 05:13:53;;;;;;;0.10;0.10;;;;;;;;;;5051975;28;20020;-68
2023/01/23 05:16:19;;;;;;;0.00;0.00;;;;;;;;;;5035123;28;20464;-68
2023/01/23 05:19:14;;;;;;;0.80;0.75;;;;;;;;;;5039553;28;20131;-68
2023/01/23 05:21:40;;;;;;;0.47;0.38;;;;;;;;;;5031146;28;20136;-70
2023/01/23 05:24:09;;;;;;;0.00;0.00;;;;;;;;;;5031727;28;20029;-69
2023/01/23 05:26:36;;;;;;;0.10;0.10;;;;;;;;;;5031662;28;20034;-68
2023/01/23 05:29:01;;;;;;;0.00;0.00;;;;;;;;;;5032746;28;20418;-69
2023/01/23 05:31:28;;;;;;;0.10;0.10;;;;;;;;;;5047862;28;20095;-69
2023/01/23 05:34:13;;;;;;;0.20;0.20;;;;;;;;;;5029033;28;20367;-68
2023/01/23 05:36:39;;;;;;;0.00;0.00;;;;;;;;;;5031385;28;20036;-68
2023/01/23 05:39:04;;;;;;;0.22;0.22;;;;;;;;;;5031088;28;20032;-69
2023/01/23 05:41:30;;;;;;;0.10;0.10;;;;;;;;;;5031027;28;20045;-69
2023/01/23 05:44:22;;;;;;;0.00;0.00;;;;;;;;;;5031062;28;20356;-69
2023/01/23 05:46:52;;;;;;;0.00;0.00;;;;;;;;;;5031135;28;20116;-68
2023/01/23 05:49:18;;;;;;;0.10;0.10;;;;;;;;;;5030781;28;20025;-69
2023/01/23 05:51:44;;;;;;;0.00;0.00;;;;;;;;;;5030894;28;20044;-68
2023/01/23 05:54:11;;;;;;;0.10;0.10;;;;;;;;;;5030885;28;20057;-68
2023/01/23 05:56:40;;;;;;;0.13;0.13;;;;;;;;;;5047098;28;20116;-69
2023/01/23 05:59:24;;;;;;;0.10;0.10;;;;;;;;;;5031933;28;20508;-69
2023/01/23 06:02:01;;;;;;;0.10;0.10;;;;;;;;;;5039805;28;20068;-69
2023/01/23 06:05:05;;;;;;;0.00;0.00;;;;;;;;;;4989101;28;20038;-69
2023/01/23 06:07:46;;;;;;;0.10;0.10;;;;;;;;;;4989807;28;20053;-68
2023/01/23 06:10:12;;;;;;;0.00;0.00;;;;;;;;;;5015044;28;20481;-68
2023/01/23 06:12:37;;;;;;;0.10;0.10;;;;;;;;;;5047989;28;20024;-68
2023/01/23 06:15:03;;;;;;;0.10;0.10;;;;;;;;;;5051640;28;20029;-69
2023/01/23 06:17:29;;;;;;;0.10;0.10;;;;;;;;;;5049916;28;20029;-69
2023/01/23 06:19:54;;;;;;;0.00;0.00;;;;;;;;;;5033078;28;20049;-68
2023/01/23 06:22:20;;;;;;;0.10;0.10;;;;;;;;;;5049419;28;20128;-69
2023/01/23 06:25:02;;;;;;;0.10;0.10;;;;;;;;;;5035134;28;20036;-68
2023/01/23 06:27:27;;;;;;;0.00;0.00;;;;;;;;;;5049754;28;20029;-67
2023/01/23 06:29:53;;;;;;;0.10;0.10;;;;;;;;;;5038193;28;20384;-68
2023/01/23 06:32:19;;;;;;;0.10;0.10;;;;;;;;;;5049781;28;20029;-69
2023/01/23 06:34:46;;;;;;;0.20;0.20;;;;;;;;;;5049009;28;20385;-68
2023/01/23 06:37:12;;;;;;;0.35;0.35;;;;;;;;;;5049411;28;20029;-68
2023/01/23 06:39:41;;;;;;;0.00;0.00;;;;;;;;;;5047967;28;20029;-67
2023/01/23 06:42:09;;;;;;;0.05;0.05;;;;;;;;;;5049584;28;20033;-68
2023/01/23 06:44:38;;;;;;;0.00;0.00;;;;;;;;;;5049122;28;20040;-69
2023/01/23 06:47:04;;;;;;;0.10;0.10;;;;;;;;;;5049612;28;20060;-69
2023/01/23 06:49:30;;;;;;;0.10;0.10;;;;;;;;;;5048456;28;20028;-68
2023/01/23 06:51:56;;;;;;;0.08;0.08;;;;;;;;;;5048656;28;20119;-68
2023/01/23 06:54:24;;;;;;;0.20;0.20;;;;;;;;;;5049128;28;20114;-68
2023/01/23 06:56:52;;;;;;;0.13;0.13;;;;;;;;;;5048719;28;20487;-68
2023/01/23 06:59:18;;;;;;;0.10;0.10;;;;;;;;;;5048364;28;20048;-68
2023/01/23 07:01:45;;;;;;;0.10;0.10;;;;;;;;;;5048448;28;20064;-69
2023/01/23 07:04:36;;;;;;;0.10;0.10;;;;;;;;;;5046942;28;20075;-68
2023/01/23 07:07:01;;;;;;;0.00;0.00;;;;;;;;;;5050647;28;20029;-69
2023/01/23 07:09:28;;;;;;;0.20;0.20;;;;;;;;;;5048812;28;20052;-69
2023/01/23 07:12:02;;;;;;;0.10;0.10;;;;;;;;;;5049384;28;20033;-68
2023/01/23 07:14:29;;;;;;;1.73;1.60;;;;;;;;;;5049651;28;20400;-68
2023/01/23 07:16:56;;;;;;;0.13;0.13;;;;;;;;;;5049242;28;20457;-68
2023/01/23 07:19:25;;;;;;;0.10;0.10;;;;;;;;;;5049590;28;20376;-68
2023/01/23 07:21:52;;;;;;;0.15;0.15;;;;;;;;;;5035731;28;20078;-68
2023/01/23 07:24:18;;;;;;;1.55;1.45;;;;;;;;;;5051670;28;20029;-69
2023/01/23 07:26:43;;;;;;;0.30;0.30;;;;;;;;;;5069970;28;20024;-68
2023/01/23 07:29:13;;;;;;;0.10;0.10;;;;;;;;;;5052299;28;20028;-68
2023/01/23 07:31:38;;;;;;;;;;;;;;;;;;5070566;28;20024;-69
2023/01/23 07:34:03;;;;;;;0.37;0.37;;;;;;;;;;5069919;28;20405;-69
2023/01/23 07:36:29;;;;;;;0.82;0.82;;;;;;;;;;5068764;28;20547;-68
2023/01/23 07:38:54;;;;;;;0.20;0.20;;;;;;;;;;5069679;28;20043;-69
2023/01/23 07:41:20;;;;;;;0.10;0.10;;;;;;;;;;5052400;28;20317;-69
2023/01/23 07:43:45;;;;;;;0.10;0.10;;;;;;;;;;5069537;28;20353;-68
2023/01/23 07:46:10;;;;;;;0.10;0.10;;;;;;;;;;5068481;28;20032;-69
2023/01/23 07:48:36;;;;;;;0.10;0.10;;;;;;;;;;5069577;28;20036;-69
2023/01/23 07:51:02;;;;;;;4.45;2.30;;;;;;;;;;5069244;28;20032;-69
2023/01/23 07:53:30;;;;;;;0.00;0.00;;;;;;;;;;5069762;28;20040;-70
2023/01/23 07:55:56;;;;;;;0.20;0.20;;;;;;;;;;5068016;28;20498;-69
2023/01/23 07:58:21;;;;;;;0.50;0.50;;;;;;;;;;5069904;28;20029;-69
2023/01/23 08:00:47;;;;;;;0.85;0.85;;;;;;;;;;5051428;28;20089;-68
2023/01/23 08:03:12;;;;;;;0.10;0.10;;;;;;;;;;5068185;28;20033;-68
2023/01/23 08:05:38;;;;;;;0.10;0.10;;;;;;;;;;5069333;28;20376;-68
2023/01/23 08:08:03;;;;;;;0.10;0.10;;;;;;;;;;5069232;28;20032;-68
2023/01/23 08:10:29;;;;;;;0.10;0.10;;;;;;;;;;5067694;28;20036;-68
2023/01/23 08:12:54;;;;;;;0.10;0.10;;;;;;;;;;5069609;28;20036;-69
2023/01/23 08:15:19;;;;;;;0.50;0.50;;;;;;;;;;5069425;28;20072;-68
2023/01/23 08:17:45;;;;;;;0.70;0.70;;;;;;;;;;5069133;28;20055;-68
2023/01/23 08:20:10;;;;;;;0.65;0.57;;;;;;;;;;5069419;28;20053;-68
2023/01/23 08:22:39;;;;;;;0.32;0.30;;;;;;;;;;5069402;28;20033;-68
2023/01/23 08:25:06;;;;;;;0.10;0.10;;;;;;;;;;5068479;28;20111;-68
2023/01/23 08:27:31;;;;;;;0.63;0.32;;;;;;;;;;5069546;28;20036;-68
2023/01/23 08:29:57;;;;;;;1.00;1.00;;;;;;;;;;5068573;28;20032;-69
2023/01/23 08:32:22;;;;;;;0.20;0.10;;;;;;;;;;5069581;28;20032;-69
2023/01/23 08:34:48;;;;;;;0.10;0.10;;;;;;;;;;5068842;28;20037;-69
2023/01/23 08:37:13;;;;;;;0.17;0.17;;;;;;;;;;5069359;28;20032;-69
2023/01/23 08:39:39;;;;;;;0.20;0.20;;;;;;;;;;5068415;28;20025;-69
2023/01/23 08:42:04;;;;;;;0.38;0.38;;;;;;;;;;5067865;28;20075;-69
2023/01/23 08:44:33;;;;;;;0.10;0.10;;;;;;;;;;5065345;28;20047;-69
2023/01/23 08:46:59;;;;;;;0.10;0.10;;;;;;;;;;5050995;28;20108;-69
2023/01/23 08:49:25;;;;;;;0.10;0.10;;;;;;;;;;5069494;28;20024;-69
2023/01/23 08:51:50;;;;;;;0.13;0.13;;;;;;;;;;5050401;28;20048;-68
2023/01/23 08:54:16;;;;;;;0.10;0.10;;;;;;;;;;5068364;28;20021;-69
2023/01/23 08:56:41;;;;;;;0.10;0.10;;;;;;;;;;5069232;28;20417;-68
2023/01/23 08:59:06;;;;;;;0.30;0.30;;;;;;;;;;5069461;28;20032;-69
2023/01/23 09:01:32;;;;;;;0.10;0.10;;;;;;;;;;5067360;28;20068;-69
2023/01/23 09:03:57;;;;;;;0.20;0.20;;;;;;;;;;5066326;28;20036;-69
2023/01/23 09:06:23;;;;;;;0.70;0.50;;;;;;;;;;5068980;28;20052;-69
2023/01/23 09:08:48;;;;;;;0.28;0.28;;;;;;;;;;5068465;28;20062;-69
2023/01/23 09:11:14;;;;;;;1.75;1.65;;;;;;;;;;5068719;28;20097;-69
2023/01/23 09:13:40;;;;;;;0.80;0.63;;;;;;;;;;5051049;28;20031;-69
2023/01/23 09:16:07;;;;;;;0.60;0.60;;;;;;;;;;5067892;28;20013;-69
2023/01/23 09:18:32;;;;;;;0.30;0.30;;;;;;;;;;5068887;28;20025;-69
2023/01/23 09:20:58;;;;;;;0.30;0.30;;;;;;;;;;5068578;28;20048;-69
2023/01/23 09:23:24;;;;;;;0.85;0.55;;;;;;;;;;5068854;28;20123;-69
2023/01/23 09:25:49;;;;;;;0.22;0.22;;;;;;;;;;5050440;28;20120;-69
2023/01/23 09:28:14;;;;;;;0.20;0.20;;;;;;;;;;5068652;28;20036;-69
2023/01/23 09:30:42;;;;;;;0.10;0.10;;;;;;;;;;5068193;28;20103;-69
2023/01/23 09:33:08;;;;;;;0.25;0.25;;;;;;;;;;5050717;28;20095;-69
2023/01/23 09:35:33;;;;;;;1.40;1.40;;;;;;;;;;5069010;28;20064;-70
2023/01/23 09:37:59;;;;;;;0.10;0.10;;;;;;;;;;5068558;28;20028;-70
2023/01/23 09:40:30;;;;;;;0.63;0.63;;;;;;;;;;5068222;28;20107;-69
2023/01/23 09:43:02;;;;;;;0.57;0.57;;;;;;;;;;5072342;28;20120;-69
2023/01/23 09:45:28;;;;;;;0.28;0.28;;;;;;;;;;5054586;28;20147;-70
2023/01/23 09:48:11;;;;;;;0.10;0.10;;;;;;;;;;5072244;28;20024;-69
2023/01/23 09:50:39;;;;;;;0.10;0.10;;;;;;;;;;5071764;28;20040;-69
2023/01/23 09:53:09;;;;;;;0.20;0.20;;;;;;;;;;5071346;28;20024;-68
2023/01/23 09:55:49;;;;;;;0.20;0.20;;;;;;;;;;5071818;28;20115;-67
2023/01/23 09:58:21;;;;;;;0.32;0.32;;;;;;;;;;5070374;28;20060;-67
2023/01/23 10:00:47;;;;;;;0.15;0.15;;;;;;;;;;5068167;28;20032;-68
2023/01/23 10:03:14;;;;;;;0.47;0.47;;;;;;;;;;5069804;28;20476;-68
2023/01/23 10:05:47;;;;;;;0.70;0.70;;;;;;;;;;5069038;28;20054;-69
2023/01/23 10:08:19;;;;;;;0.10;0.10;;;;;;;;;;5062520;28;20051;-68
2023/01/23 10:10:47;;;;;;;0.30;0.30;;;;;;;;;;5058962;28;20037;-68
2023/01/23 10:13:17;;;;;;;3.13;2.92;;;;;;;;;;5059104;28;20021;-67
2023/01/23 10:15:42;;;;;;;;;;;;;;;;;;5064929;28;20365;-67
2023/01/23 10:18:19;;;;;;;0.20;0.20;;;;;;;;;;5063410;28;19954;-68
2023/01/23 10:20:44;;;;;;;0.52;0.52;;;;;;;;;;5063541;28;20045;-68
2023/01/23 10:23:22;;;;;;;0.15;0.15;;;;;;;;;;5068676;28;20045;-67
2023/01/23 10:25:48;;;;;;;0.20;0.20;;;;;;;;;;5063161;28;20044;-68
2023/01/23 10:28:34;;;;;;;0.20;0.20;;;;;;;;;;5052557;28;20074;-67
2023/01/23 10:31:02;;;;;;;1.00;0.65;;;;;;;;;;5058590;28;20060;-67
2023/01/23 10:33:42;;;;;;;2.33;2.15;;;;;;;;;;5063969;28;20082;-67
2023/01/23 10:36:26;;;;;;;0.28;0.28;;;;;;;;;;5050846;28;20041;-67
2023/01/23 10:38:56;;;;;;;0.63;0.63;;;;;;;;;;5052661;28;20093;-67
2023/01/23 10:41:21;;;;;;;0.20;0.20;;;;;;;;;;5069307;28;20464;-67
2023/01/23 10:43:51;;;;;;;0.20;0.20;;;;;;;;;;5067153;28;20032;-67
2023/01/23 10:46:36;;;;;;;0.22;0.22;;;;;;;;;;5069270;28;20029;-67
2023/01/23 10:49:02;;;;;;;0.10;0.10;;;;;;;;;;5051531;28;20029;-67
2023/01/23 10:51:28;;;;;;;0.43;0.43;;;;;;;;;;5050691;28;20495;-67
2023/01/23 10:53:59;;;;;;;0.20;0.20;;;;;;;;;;5069049;28;20028;-67
2023/01/23 10:56:25;;;;;;;0.60;0.60;;;;;;;;;;5069355;28;20025;-67
2023/01/23 10:58:54;;;;;;;0.60;0.22;;;;;;;;;;5068733;28;20107;-67
2023/01/23 11:01:25;;;;;;;0.70;0.70;;;;;;;;;;5050625;28;20075;-66
2023/01/23 11:03:50;;;;;;;1.33;0.30;;;;;;;;;;5067218;28;20032;-69
2023/01/23 11:06:16;;;;;;;0.57;0.47;;;;;;;;;;5066947;28;20032;-69
2023/01/23 11:08:56;;;;;;;0.43;0.43;;;;;;;;;;5061002;28;21477;-69
2023/01/23 11:11:26;;;;;;;0.20;0.20;;;;;;;;;;5067769;28;20142;-68
2023/01/23 11:14:06;;;;;;;0.20;0.20;;;;;;;;;;5051115;28;20492;-68
2023/01/23 11:16:32;;;;;;;0.40;0.40;;;;;;;;;;5067817;28;20475;-69
2023/01/23 11:19:04;;;;;;;0.32;0.32;;;;;;;;;;5044245;28;20020;-69
2023/01/23 11:21:32;;;;;;;0.17;0.17;;;;;;;;;;5054918;28;20051;-68
2023/01/23 11:24:09;;;;;;;0.20;0.20;;;;;;;;;;5050398;28;20040;-69
2023/01/23 11:26:35;;;;;;;0.30;0.30;;;;;;;;;;5050389;28;20504;-68
2023/01/23 11:29:01;;;;;;;0.28;0.28;;;;;;;;;;5050523;28;20044;-69
2023/01/23 11:31:27;;;;;;;0.20;0.20;;;;;;;;;;5050381;28;20037;-69
2023/01/23 11:33:55;;;;;;;0.20;0.20;;;;;;;;;;5032422;28;20028;-69
2023/01/23 11:36:30;;;;;;;0.50;0.50;;;;;;;;;;5050243;28;20423;-68
2023/01/23 11:38:59;;;;;;;0.20;0.20;;;;;;;;;;5050147;28;20052;-68
2023/01/23 11:41:32;;;;;;;0.35;0.35;;;;;;;;;;5032689;28;20512;-69
2023/01/23 11:43:57;;;;;;;0.15;0.15;;;;;;;;;;5061128;28;20111;-68
2023/01/23 11:46:26;;;;;;;0.38;0.30;;;;;;;;;;5069692;28;20154;-69
2023/01/23 11:49:11;;;;;;;0.47;0.47;;;;;;;;;;5069864;28;20032;-69
2023/01/23 11:51:41;;;;;;;0.10;0.10;;;;;;;;;;5069503;28;20044;-68
2023/01/23 11:54:06;;;;;;;;;;;;;;;;;;5061817;28;20028;-68
2023/01/23 11:56:50;;;;;;;0.10;0.10;;;;;;;;;;5051725;28;19914;-68
2023/01/23 11:59:28;;;;;;;0.30;0.30;;;;;;;;;;5031960;28;20597;-69
2023/01/23 12:02:10;;;;;;;1.77;0.88;;;;;;;;;;5049537;28;20089;-68
2023/01/23 12:04:54;;;;;;;0.20;0.20;;;;;;;;;;5048814;28;20048;-68
2023/01/23 12:07:21;;;;;;;0.10;0.10;;;;;;;;;;5049707;28;20032;-69
2023/01/23 12:09:47;;;;;;;0.15;0.15;;;;;;;;;;5049643;28;20029;-68
2023/01/23 12:12:15;;;;;;;0.32;0.32;;;;;;;;;;5031455;28;20032;-68
2023/01/23 12:14:40;;;;;;;1.35;1.27;;;;;;;;;;5049445;28;20099;-68
2023/01/23 12:17:15;;;;;;;0.20;0.20;;;;;;;;;;5049204;28;20116;-69
2023/01/23 12:19:46;;;;;;;0.10;0.10;;;;;;;;;;5054816;28;20044;-69
2023/01/23 12:22:31;;;;;;;0.10;0.10;;;;;;;;;;5060994;28;20428;-69
2023/01/23 12:24:57;;;;;;;0.10;0.10;;;;;;;;;;5064265;28;20491;-69
2023/01/23 12:27:40;;;;;;;0.10;0.10;;;;;;;;;;5062618;28;20033;-68
2023/01/23 12:30:24;;;;;;;0.20;0.20;;;;;;;;;;5060456;28;20035;-69
2023/01/23 12:32:50;;;;;;;0.10;0.10;;;;;;;;;;5067332;28;20108;-68
2023/01/23 12:35:18;;;;;;;0.10;0.10;;;;;;;;;;5051424;28;20162;-70
2023/01/23 12:38:02;;;;;;;0.40;0.40;;;;;;;;;;5069069;28;20021;-70
2023/01/23 12:40:36;;;;;;;0.22;0.22;;;;;;;;;;5067858;28;20057;-69
2023/01/23 12:43:13;;;;;;;0.10;0.10;;;;;;;;;;5054490;28;20044;-68
2023/01/23 12:45:48;;;;;;;95.05;9.02;;;;;;;;;;5069079;28;20050;-68
2023/01/23 12:48:16;;;;;;;20.73;3.13;;;;;;;;;;5068524;28;20397;-68
2023/01/23 12:51:03;;;;;;;8.25;2.63;;;;;;;;;;5051850;28;20028;-68
2023/01/23 12:53:32;;;;;;;0.38;0.25;;;;;;;;;;5068077;28;20024;-68
2023/01/23 12:56:04;;;;;;;0.60;0.60;;;;;;;;;;5067600;28;20048;-68
2023/01/23 12:58:32;;;;;;;0.20;0.20;;;;;;;;;;5065849;28;20029;-68
2023/01/23 13:01:16;;;;;;;0.30;0.30;;;;;;;;;;5066216;28;20012;-68
2023/01/23 13:04:08;;;;;;;0.10;0.10;;;;;;;;;;5060424;28;20056;-69
2023/01/23 13:06:36;;;;;;;0.10;0.10;;;;;;;;;;5059550;28;20028;-69
2023/01/23 13:09:22;;;;;;;0.10;0.10;;;;;;;;;;5058490;28;20033;-68
2023/01/23 13:11:55;;;;;;;0.32;0.32;;;;;;;;;;5060678;28;20063;-69
2023/01/23 13:14:29;;;;;;;1.48;1.05;;;;;;;;;;5069698;28;20102;-69
2023/01/23 13:17:01;;;;;;;0.20;0.20;;;;;;;;;;5072647;28;20060;-68
2023/01/23 13:22:12;;;;;;;0.60;0.38;;;;;;;;;;5069035;28;20044;-69
2023/01/23 13:27:43;;;;;;;0.10;0.10;;;;;;;;;;5062431;28;20434;-68
2023/01/23 13:30:24;;;;;;;0.10;0.10;;;;;;;;;;5053219;28;20024;-70
2023/01/23 13:32:54;;;;;;;0.28;0.28;;;;;;;;;;5064786;28;20059;-68
2023/01/23 13:35:38;;;;;;;0.35;0.35;;;;;;;;;;5061138;28;20021;-69
2023/01/23 13:38:21;;;;;;;0.10;0.10;;;;;;;;;;5062705;28;20024;-70
2023/01/23 13:43:49;;;;;;;0.10;0.10;;;;;;;;;;5069039;28;20040;-69
2023/01/23 13:46:32;;;;;;;0.15;0.15;;;;;;;;;;5068426;28;20686;-69
2023/01/23 13:51:50;;;;;;;0.60;0.50;;;;;;;;;;5068737;28;20029;-69
2023/01/23 13:57:07;;;;;;;0.65;0.65;;;;;;;;;;5069359;28;20036;-69
2023/01/23 14:09:57;;;;;;;0.20;0.20;;;;;;;;;;5071709;28;20488;-69
2023/01/23 14:12:27;;;;;;;0.40;0.40;;;;;;;;;;5053808;28;20119;-68
2023/01/23 14:17:37;;;;;;;0.20;0.20;;;;;;;;;;5071912;28;20067;-69
2023/01/23 14:20:05;;;;;;;0.55;0.55;;;;;;;;;;5071589;28;20956;-69
2023/01/23 14:22:31;;;;;;;0.10;0.10;;;;;;;;;;5071791;28;20028;-69
2023/01/23 14:24:56;;;;;;;0.10;0.10;;;;;;;;;;5071603;28;20032;-69
2023/01/23 14:27:32;;;;;;;0.45;0.45;;;;;;;;;;5070740;28;20419;-69
2023/01/23 14:29:58;;;;;;;0.20;0.20;;;;;;;;;;5053317;28;20044;-68
2023/01/23 14:32:26;;;;;;;0.55;0.55;;;;;;;;;;5051847;28;20036;-70
2023/01/23 14:34:52;;;;;;;0.10;0.10;;;;;;;;;;5069348;28;20435;-69
2023/01/23 14:37:17;;;;;;;0.10;0.10;;;;;;;;;;5065459;28;20032;-69
2023/01/23 14:39:46;;;;;;;0.13;0.13;;;;;;;;;;5069291;28;20023;-69
2023/01/23 14:42:20;;;;;;;0.13;0.13;;;;;;;;;;5069845;28;20063;-69
2023/01/23 14:44:46;;;;;;;0.20;0.20;;;;;;;;;;5052315;28;20033;-69
2023/01/23 14:47:15;;;;;;;0.30;0.30;;;;;;;;;;5070216;28;20032;-69
2023/01/23 14:49:40;;;;;;;0.10;0.10;;;;;;;;;;5069959;28;20040;-69
2023/01/23 14:52:06;;;;;;;0.77;0.77;;;;;;;;;;5069789;28;20380;-69
2023/01/23 14:54:32;;;;;;;0.10;0.10;;;;;;;;;;5069388;28;20028;-69
2023/01/23 14:56:59;;;;;;;0.43;0.40;;;;;;;;;;5069104;28;20038;-69
2023/01/23 14:59:27;;;;;;;0.10;0.10;;;;;;;;;;5068917;28;20407;-69
2023/01/23 15:01:56;;;;;;;0.43;0.30;;;;;;;;;;5050852;28;20025;-69
2023/01/23 15:04:23;;;;;;;0.35;0.35;;;;;;;;;;5068718;28;20422;-69
2023/01/23 15:06:50;;;;;;;0.85;0.85;;;;;;;;;;5069066;28;20070;-69
2023/01/23 15:09:16;;;;;;;0.10;0.10;;;;;;;;;;5069454;28;20025;-69
2023/01/23 15:11:42;;;;;;;0.20;0.20;;;;;;;;;;5069488;28;20534;-69
2023/01/23 15:14:21;;;;;;;0.20;0.20;;;;;;;;;;5069658;28;20441;-69
2023/01/23 15:16:46;;;;;;;0.13;0.13;;;;;;;;;;5070747;28;20037;-69
2023/01/23 15:19:19;;;;;;;0.65;0.65;;;;;;;;;;5070618;28;20029;-69
2023/01/23 15:21:45;;;;;;;0.10;0.10;;;;;;;;;;5050046;28;20135;-68
2023/01/23 15:24:10;;;;;;;0.20;0.20;;;;;;;;;;5050378;28;20100;-69
2023/01/23 15:26:36;;;;;;;0.10;0.10;;;;;;;;;;5050653;28;20400;-69
2023/01/23 15:29:02;;;;;;;0.10;0.10;;;;;;;;;;5050525;28;20104;-69